Rachel, Nevada Weather observations

Data are for observation ending at time listed.
 Day   Time    Ave.   Ave.  Ave.  Vector   Max.   Stn.    Total    Solar   Ave.  
  of    of     Air    Rel.  Wind   Wind    Wind   Baro.  Precip.   Rad.    Soil  
Year   Day     Temp.  Hum.  Speed  Dir.    Gust   Pres.                    Temp. 
2016   (PST)    F      %     mph   deg.    mph     mb.     in.     W/m2     F   
------------------------------------------------------------------------------
  44    4:40   12.6    92    0.0   187      0.1   854.1    0.00       0    22.3
  44    4:50   12.1    92    0.4   171      1.8   854.2    0.00       0    22.2
  44    5:00   13.0    92    2.8   150      3.5   854.1    0.00       0    22.1
  44    5:10   14.1    92    1.5   182      2.6   854.1    0.00       0    22.2
  44    5:20   13.9    92    0.4   189      1.5   854.1    0.00       0    22.3
  44    5:30   13.2    91    2.0   272      3.6   854.3    0.00       0    22.3
  44    5:40   12.5    92    2.0   274      2.9   854.3    0.00       0    22.2
  44    5:50   12.5    92    2.4   236      3.1   854.4    0.00       0    22.2
  44    6:00   12.7    92    1.1   264      2.6   854.5    0.00       0    22.1
  44    6:10   11.9    91    2.3   267      3.2   854.6    0.00       0    22.0
  44    6:20   11.9    91    2.9   230      4.1   854.6    0.00       0    22.0
  44    6:30   11.1    91    3.9   208      4.7   854.6    0.00       0    21.9
  44    6:40   11.6    92    2.8   213      3.9   854.6    0.00       3    21.8
  44    6:50   12.5    92    1.2   215      2.3   854.6    0.00       8    21.7
  44    7:00   13.2    92    0.1   215      0.5   854.8    0.00      14    21.8
  44    7:10   13.6    92    0.5   215      1.8   854.8    0.00      20    21.9
  44    7:20   13.6    92    2.5   178      3.1   854.8    0.00      46    21.7
  44    7:30   14.3    92    1.7   174      2.8   854.9    0.00      73    21.9
  44    7:40   16.4    92    0.5   173      1.5   855.1    0.00     121    22.2
  44    7:50   18.5    92    0.5   332      2.3   855.4    0.00     108    22.6
  44    8:00   14.1    90    1.6    14      2.9   855.6    0.00      93    22.6
  44    8:10   13.3    91    1.0    30      2.1   855.8    0.00     105    22.5
  44    8:20   15.9    92    0.0    30      0.5   855.8    0.00     168    22.6
  44    8:30   16.9    91    0.0     0      0.0   855.8    0.00     119    22.9
  44    8:40   16.1    91    0.9   321      2.2   855.8    0.00     119    23.0
  44    8:50   14.5    92    1.2   322      2.7   855.9    0.00     120    22.8
  44    9:00   15.7    92    1.9   229      4.1   855.9    0.00     171    23.0
  44    9:10   16.1    91    1.8   260      3.8   855.9    0.00     200    23.3
  44    9:20   14.8    91    2.0   290      3.7   855.9    0.00     220    23.4
  44    9:30   16.7    91    0.6   176      2.0   856.0    0.00     246    23.5
  44    9:40   17.8    91    0.7   290      2.3   856.3    0.00     261    23.9
  44    9:50   17.3    91    1.8   242      3.3   856.5    0.00     253    24.1
  44   10:00   18.3    91    2.1   194      2.9   856.6    0.00     346    24.3
  44   10:10   19.7    91    2.4   196      3.7   856.5    0.00     335    24.8
  44   10:20   22.0    92    2.5   196      3.3   856.5    0.00     358    25.1
  44   10:30   25.2    92    2.3   254      6.6   856.4    0.00     293    25.5
  44   10:40   23.9    90    5.5   330      7.2   856.4    0.00     294    25.7
  44   10:50   23.5    90    3.9   326      5.2   856.5    0.00     318    25.7
  44   11:00   24.3    90    2.3   295      5.3   856.8    0.00     287    25.9
  44   11:10   25.4    88    1.9   169      3.0   856.9    0.00     252    26.1
  44   11:20   25.6    87    3.1   138      4.8   856.7    0.00     304    26.3
  44   11:30   28.1    84    1.6    86      3.0   856.7    0.00     308    26.5
  44   11:40   29.0    80    3.0    72      4.7   856.5    0.00     378    26.8
  44   11:50   29.4    82    2.5   111      4.4   856.3    0.00     401    27.0
  44   12:00   32.8    77    0.8   170      2.3   856.3    0.00     405    27.3
  44   12:10   33.9    74    2.2   335      3.7   856.4    0.00     435    27.6
  44   12:20   31.8    79    3.3   297      4.4   856.5    0.00     470    27.7
  44   12:30   31.4    79    3.2   304      4.2   856.5    0.00     484    27.9
  44   12:40   31.0    80    2.4   310      3.6   856.3    0.00     460    27.9
  44   12:50   33.4    74    1.0   299      2.1   856.4    0.00     481    28.0
  44   13:00   34.8    71    1.0   284      2.6   856.5    0.00     451    28.1
  44   13:10   34.1    73    2.1   176      3.4   856.6    0.00     449    28.2
  44   13:20   33.7    75    3.0   146      4.5   856.6    0.00     448    28.3
  44   13:30   33.8    78    2.0   174      4.1   856.7    0.00     435    28.4
  44   13:40   35.8    73    1.2   156      2.4   856.5    0.00     436    28.6
  44   13:50   37.2    71    1.1   138      1.9   856.2    0.00     425    28.7
  44   14:00   38.7    68    0.2   116      1.9   856.5    0.00     408    28.9
  44   14:10   36.5    74    3.2   307      5.5   856.7    0.00     392    29.0
  44   14:20   35.1    77    2.9   295      4.3   856.8    0.00     376    29.1
  44   14:30   34.3    80    4.3   310      6.4   856.5    0.00     359    29.4
  44   14:40   34.3    80    2.1   296      4.0   856.3    0.00     342    29.5
  44   14:50   36.4    74    1.4   192      2.6   856.1    0.00     326    29.5
  44   15:00   37.4    73    1.4   196      3.8   856.0    0.00     308    29.6
  44   15:10   36.6    76    1.1   214      2.6   856.0    0.00     289    29.8
  44   15:20   35.8    77    2.4   294      3.7   856.0    0.00     269    29.9
  44   15:30   36.4    75    2.5   276      3.4   856.0    0.00     248    29.9
  44   15:40   37.5    72    1.5   266      2.8   856.0    0.00     227    30.0
  44   15:50   35.4    77    3.1   178      4.5   855.9    0.00     206    30.0
  44   16:00   34.5    82    2.5   173      4.1   855.8    0.00     184    30.0
  44   16:10   35.4    80    1.2   138      2.2   855.8    0.00     162    30.0
  44   16:20   35.9    77    1.4     9      2.6   855.8    0.00     141    30.1
  44   16:30   36.7    75    0.5   228      1.8   855.9    0.00     121    30.2
  44   16:40   34.8    80    1.1   198      2.6   855.8    0.00      96    30.2
  44   16:50   34.3    81    1.4   238      2.9   856.0    0.00      67    30.1
  44   17:00   35.1    79    0.9   250      2.3   855.9    0.00      41    30.1
  44   17:10   34.1    78    0.3   294      1.4   855.8    0.00      22    30.0
  44   17:20   31.4    85    1.6   120      3.4   855.5    0.00       9    29.9
  44   17:30   29.8    88    3.9   134      4.7   855.1    0.00       4    29.6
  44   17:40   29.4    87    3.9   146      4.7   854.5    0.00       2    29.5
  44   17:50   29.8    87    1.8   195      3.1   854.5    0.00       0    29.4
  44   18:00   27.8    88    3.2   322      4.2   854.5    0.00       0    29.2
  44   18:10   26.1    89    3.0   296      4.5   854.4    0.00       0    29.0
  44   18:20   26.2    90    4.5   238      6.7   854.1    0.00       0    28.9
  44   18:30   26.4    91    6.0   213      7.2   853.8    0.00       0    28.9
  44   18:40   25.4    91    5.1   191      6.1   854.0    0.00       0    28.8
  44   18:50   25.7    91    2.7   187      3.7   854.1    0.00       0    28.6
  44   19:00   26.3    90    1.6   156      3.4   854.2    0.00       0    28.5
  44   19:10   27.5    90    0.4   154      1.4   854.3    0.00       0    28.4
  44   19:20   26.6    88    2.4   131      4.7   854.2    0.00       0    28.3
  44   19:30   23.8    90    3.8   162      5.1   854.4    0.00       0    28.1
  44   19:40   23.1    91    5.2   170      5.7   854.4    0.00       0    28.1
  44   19:50   24.2    91    4.5   167      5.8   854.3    0.00       0    27.9
  44   20:00   24.0    90    4.4   191      5.6   854.5    0.00       0    27.9
  44   20:10   23.0    88    2.9   196      4.0   854.6    0.00       0    27.9
  44   20:20   22.5    88    3.5   209      4.4   854.3    0.00       0    27.9
  44   20:30   22.9    88    3.6   236      4.7   854.3    0.00       0    27.7
  44   20:40   22.0    88    3.1   204      4.6   854.4    0.00       0    27.7
  44   20:50   22.7    88    5.7   193      6.8   854.3    0.00       0    27.5
  44   21:00   23.1    87    3.1   180      5.4   854.4    0.00       0    27.3
  44   21:10   22.1    88    1.6    93      4.6   854.6    0.00       0    27.3
  44   21:20   18.9    86    1.1   290      4.4   854.7    0.00       0    27.1
  44   21:30   18.7    90    1.9   177      2.6   854.6    0.00       0    26.9
  44   21:40   20.3    91    0.0   215      1.3   854.5    0.00       0    26.9
  44   21:50   21.7    90    2.0   255      2.6   854.5    0.00       0    26.9
  44   22:00   19.9    88    0.4   239      1.5   854.6    0.00       0    26.8
  44   22:10   19.6    89    1.1   198      2.4   854.6    0.00       0    26.5
  44   22:20   19.9    88    0.3   232      1.2   854.5    0.00       0    26.5
  44   22:30   19.6    88    0.6    58      3.1   854.8    0.00       0    26.5
  44   22:40   18.8    90    5.5    65      8.6   855.0    0.00       0    26.3
  44   22:50   19.3    93   10.0    91     11.4   855.0    0.00       0    26.1
  44   23:00   20.4    93    9.1    94     11.0   854.9    0.00       0    25.9
  44   23:10   21.8    93   10.0   103     12.1   854.7    0.00       0    26.0
  44   23:20   23.6    91    8.0   101     11.5   854.8    0.00       0    26.1
  44   23:30   20.2    88    3.6   322      6.7   855.0    0.00       0    26.1
  44   23:40   15.8    92    8.4   300     10.8   855.1    0.00       0    25.7
  44   23:50   15.5    93    6.7   264      8.6   855.1    0.00       0    25.5
  45    0:00   15.7    93    6.1   233      9.3   855.0    0.00       0    25.4
  45    0:10   16.2    93    2.1   248      4.2   855.1    0.00       0    25.3
  45    0:20   17.3    94    0.4   166      1.7   855.1    0.00       0    25.2
  45    0:30   18.6    94    0.8   162      2.3   855.0    0.00       0    25.1
  45    0:40   18.0    94    4.1   168      5.8   854.9    0.00       0    25.0
  45    0:50   18.6    94    5.0   166      5.9   854.7    0.00       0    24.9
  45    1:00   16.7    92    4.2   155      4.8   854.4    0.00       0    24.8
  45    1:10   16.9    91    4.0   157      5.5   854.3    0.00       0    24.6
  45    1:20   17.8    90    2.5   162      4.3   854.3    0.00       0    24.6
  45    1:30   14.5    87    2.1   302      4.5   854.4    0.00       0    24.5
  45    1:40   11.9    88    0.8    46      2.4   854.3    0.00       0    24.3
  45    1:50   12.5    90    0.5    83      2.4   854.2    0.00       0    24.1
  45    2:00   13.6    90    2.5    94      4.6   854.0    0.00       0    24.0
  45    2:10   16.4    93    5.0    88      5.9   853.6    0.00       0    23.9
  45    2:20   18.5    94    3.6   111      5.9   853.3    0.00       0    23.9
  45    2:30   14.3    91    5.6   322     11.1   853.5    0.00       0    23.9
  45    2:40   10.8    92    5.5   271      6.7   853.6    0.00       0    23.5
  45    2:50   10.1    92    7.8   207     10.0   853.7    0.00       0    23.4
  45    3:00   12.3    93    6.1   171      7.4   853.8    0.00       0    23.2
  45    3:10   14.7    93    4.6   172      6.1   853.8    0.00       0    23.1
  45    3:20   14.8    92    4.3   168      5.0   853.5    0.00       0    23.2
  45    3:30   14.7    92    5.3   170      5.9   853.0    0.00       0    23.2
  45    3:40   16.4    92    3.5   161      5.7   852.8    0.00       0    23.2
  45    3:50   15.5    91    1.8   199      2.9   852.6    0.00       0    23.2
  45    4:00   13.9    90    4.2   272      5.8   852.7    0.00       0    23.2
  45    4:10   12.8    90    4.7   244      5.8   852.7    0.00       0    23.1
  45    4:20   12.6    92    5.2   230      5.8   852.8    0.00       0    22.8
  45    4:30   14.0    93    4.4   247      6.3   852.9    0.00       0    22.9

Return to St. George, Utah graphs page.


Western Regional Climate Center,wrcc@dri.edu